createdAt,value
2022-10-28T08:58:44.491Z,6.10
2022-10-28T09:01:19.216Z,6.45
2022-10-28T09:03:49.226Z,8.05
2022-10-28T09:06:16.846Z,7.80
2022-10-28T09:08:45.872Z,6.93
2022-10-28T09:11:26.261Z,6.55
2022-10-28T09:16:22.480Z,7.60
2022-10-28T09:18:50.081Z,7.68
2022-10-28T09:21:29.307Z,8.00
2022-10-28T09:23:58.217Z,8.30
2022-10-28T09:26:38.093Z,8.05
2022-10-28T09:29:26.415Z,8.48
2022-10-28T09:31:56.156Z,7.77
2022-10-28T09:34:33.069Z,9.47
2022-10-28T09:37:07.124Z,9.18
2022-10-28T09:39:45.640Z,8.27
2022-10-28T09:42:24.584Z,8.82
2022-10-28T09:44:54.993Z,12.88
2022-10-28T09:47:25.113Z,9.95
2022-10-28T09:49:54.539Z,9.55
2022-10-28T09:52:24.379Z,9.88
2022-10-28T09:54:53.125Z,10.35
2022-10-28T09:57:21.491Z,12.57
2022-10-28T09:59:49.182Z,11.93
2022-10-28T10:02:30.552Z,11.15
2022-10-28T10:04:59.110Z,10.68
2022-10-28T10:07:31.041Z,10.50
2022-10-28T10:10:00.673Z,10.60
2022-10-28T10:12:31.175Z,11.05
2022-10-28T10:14:59.970Z,14.25
2022-10-28T10:17:37.388Z,13.70
2022-10-28T10:20:04.842Z,9.77
2022-10-28T10:22:50.523Z,11.70
2022-10-28T10:25:17.926Z,9.23
2022-10-28T10:28:01.708Z,9.73
2022-10-28T10:30:33.565Z,11.13
2022-10-28T10:33:02.939Z,10.73
2022-10-28T10:35:33.473Z,10.40
2022-10-28T10:38:04.483Z,12.07
2022-10-28T10:40:35.390Z,10.48
2022-10-28T10:43:17.762Z,8.57
2022-10-28T10:46:04.870Z,9.33
2022-10-28T10:48:36.256Z,9.80
2022-10-28T10:51:26.760Z,8.77
2022-10-28T10:53:57.898Z,9.25
2022-10-28T10:56:28.325Z,9.70
2022-10-28T10:59:01.226Z,9.23
2022-10-28T11:01:39.823Z,8.10
2022-10-28T11:04:15.069Z,8.25
2022-10-28T11:06:44.644Z,9.15
2022-10-28T11:09:36.315Z,7.43
2022-10-28T11:12:26.462Z,8.05
2022-10-28T11:14:57.270Z,10.17
2022-10-28T11:17:30.282Z,9.30
2022-10-28T11:20:00.115Z,8.15
2022-10-28T11:23:05.638Z,8.45
2022-10-28T11:25:38.468Z,8.43
2022-10-28T11:28:23.580Z,8.38
2022-10-28T11:30:56.835Z,8.18
2022-10-28T11:33:54.676Z,7.45
2022-10-28T11:36:39.128Z,8.45
2022-10-28T11:39:12.425Z,8.00
2022-10-28T11:41:58.365Z,7.50
2022-10-28T11:44:54.831Z,7.55
2022-10-28T11:47:41.112Z,7.60
2022-10-28T11:50:13.297Z,5.63
2022-10-28T11:53:01.675Z,6.70
2022-10-28T11:55:47.661Z,6.30
2022-10-28T11:58:26.922Z,7.50
2022-10-28T12:00:54.273Z,6.90
2022-10-28T12:04:12.578Z,5.70
2022-10-28T12:07:26.735Z,7.13
2022-10-28T12:10:21.735Z,8.52
2022-10-28T12:12:51.446Z,6.07
2022-10-28T12:15:41.954Z,6.60
2022-10-28T12:18:50.845Z,8.30
2022-10-28T12:21:39.663Z,7.80
2022-10-28T12:24:16.241Z,7.82
2022-10-28T12:26:47.363Z,7.32
2022-10-28T12:29:23.941Z,7.43
2022-10-28T12:32:03.165Z,7.30
2022-10-28T12:34:38.027Z,8.05
2022-10-28T12:37:13.769Z,6.88
2022-10-28T12:40:20.685Z,7.18
2022-10-28T12:43:01.874Z,5.73
2022-10-28T12:45:32.151Z,5.15
2022-10-28T12:48:13.731Z,5.17
2022-10-28T12:50:52.936Z,5.33
2022-10-28T12:53:35.661Z,4.82
2022-10-28T12:56:06.674Z,6.88
2022-10-28T12:58:44.835Z,5.70
2022-10-28T13:01:15.877Z,6.30
2022-10-28T13:03:43.504Z,4.93
2022-10-28T13:06:10.788Z,4.85
2022-10-28T13:08:47.362Z,4.88
2022-10-28T13:11:50.571Z,4.85
2022-10-28T13:14:56.302Z,3.75
2022-10-28T13:17:57.566Z,3.42
2022-10-28T13:20:57.541Z,3.97
2022-10-28T13:23:45.847Z,3.42
2022-10-28T13:26:31.304Z,2.97
2022-10-28T13:29:01.909Z,3.20
2022-10-28T13:31:55.608Z,3.42
2022-10-28T13:34:35.966Z,3.15
2022-10-28T13:37:06.086Z,2.92
2022-10-28T13:39:36.392Z,2.70
2022-10-28T13:42:46.177Z,3.30
2022-10-28T13:45:56.642Z,2.90
2022-10-28T13:48:30.183Z,3.33
2022-10-28T13:51:09.335Z,3.85
2022-10-28T13:53:45.530Z,3.50
2022-10-28T13:56:21.812Z,3.50
2022-10-28T13:59:02.753Z,4.28
2022-10-28T14:02:07.864Z,4.05
2022-10-28T14:04:42.825Z,4.18
2022-10-28T14:07:22.773Z,5.10
2022-10-28T14:09:53.167Z,4.60
2022-10-28T14:12:32.054Z,4.60
2022-10-28T14:15:18.934Z,5.60
2022-10-28T14:18:05.178Z,5.03
2022-10-28T14:20:48.462Z,6.13
2022-10-28T14:23:21.855Z,7.07
2022-10-28T14:25:54.562Z,8.63
2022-10-28T14:28:27.940Z,8.38
2022-10-28T14:31:10.532Z,9.10
2022-10-28T14:33:38.168Z,9.50
2022-10-28T14:36:17.705Z,10.38
2022-10-28T14:39:03.554Z,10.38
2022-10-28T14:41:55.550Z,9.52
2022-10-28T14:44:43.892Z,9.55
2022-10-28T14:47:16.790Z,8.82
2022-10-28T14:50:09.477Z,9.30
2022-10-28T14:52:37.696Z,10.15
2022-10-28T14:55:08.373Z,10.48
2022-10-28T14:57:35.772Z,11.32
2022-10-28T15:00:07.966Z,10.40
2022-10-28T15:02:38.284Z,10.35
2022-10-28T15:05:26.187Z,12.38
2022-10-28T15:07:53.976Z,13.27
2022-10-28T15:10:31.192Z,14.02
2022-10-28T15:13:00.363Z,14.88
2022-10-28T15:15:30.627Z,16.70
2022-10-28T15:17:59.264Z,16.65
2022-10-28T15:20:29.729Z,17.43
2022-10-28T15:23:18.943Z,17.85
2022-10-28T15:25:46.600Z,17.30
2022-10-28T15:28:14.484Z,18.02
2022-10-28T15:30:46.426Z,17.57
2022-10-28T15:33:38.132Z,17.92
2022-10-28T15:36:26.366Z,18.63
2022-10-28T15:39:16.990Z,18.47
2022-10-28T15:41:46.033Z,17.97
2022-10-28T15:44:43.090Z,18.48
2022-10-28T15:47:32.878Z,17.58
2022-10-28T15:50:27.130Z,19.10
2022-10-28T15:53:09.832Z,18.85
2022-10-28T15:58:40.017Z,19.50
2022-10-28T16:01:35.260Z,18.35
2022-10-28T16:04:02.829Z,18.92
2022-10-28T16:06:36.585Z,17.67
2022-10-28T16:09:06.956Z,17.02
2022-10-28T16:11:39.342Z,17.45
2022-10-28T16:14:35.680Z,18.05
2022-10-28T16:17:23.791Z,18.80
2022-10-28T16:19:58.517Z,19.33
2022-10-28T16:22:28.328Z,17.92
2022-10-28T16:24:55.766Z,18.48
2022-10-28T16:27:32.970Z,18.05
2022-10-28T16:30:00.392Z,17.80
2022-10-28T16:32:33.924Z,18.20
2022-10-28T16:35:03.980Z,17.55
2022-10-28T16:37:34.110Z,18.30
2022-10-28T16:40:01.461Z,17.75
2022-10-28T16:42:28.812Z,14.13
2022-10-28T16:44:56.123Z,15.18
2022-10-28T16:47:29.178Z,15.13
2022-10-28T16:49:57.476Z,14.77
2022-10-28T16:52:30.507Z,14.35
2022-10-28T16:54:58.773Z,13.68
2022-10-28T16:57:26.883Z,13.73
2022-10-28T16:59:54.623Z,12.35
2022-10-28T17:02:29.747Z,12.35
2022-10-28T17:04:58.020Z,11.70
2022-10-28T17:07:26.199Z,11.45
2022-10-28T17:09:53.768Z,11.13
2022-10-28T17:12:23.604Z,10.98
2022-10-28T17:14:51.212Z,9.83
2022-10-28T17:17:19.221Z,10.38
2022-10-28T17:19:46.857Z,9.68
2022-10-28T17:22:14.351Z,9.27
2022-10-28T17:24:41.835Z,8.95
2022-10-28T17:27:09.213Z,9.55
2022-10-28T17:29:36.715Z,8.93
2022-10-28T17:32:04.737Z,8.65
2022-10-28T17:34:32.172Z,8.77
2022-10-28T17:36:59.492Z,8.68
2022-10-28T17:39:27.027Z,8.43
2022-10-28T17:41:54.379Z,8.10
2022-10-28T17:44:21.925Z,8.68
2022-10-28T17:46:49.430Z,8.25
2022-10-28T17:49:17.433Z,8.15
2022-10-28T17:51:44.877Z,7.93
2022-10-28T17:54:12.291Z,8.65
2022-10-28T17:56:42.136Z,7.43
2022-10-28T17:59:09.873Z,8.17
2022-10-28T18:01:37.334Z,8.10
2022-10-28T18:04:06.143Z,7.13
2022-10-28T18:06:33.905Z,7.70
2022-10-28T18:09:01.287Z,7.80
2022-10-28T18:11:31.326Z,8.77
2022-10-28T18:13:58.722Z,8.60
2022-10-28T18:16:28.226Z,8.55
2022-10-28T18:18:56.422Z,8.20
2022-10-28T18:21:27.304Z,8.55
2022-10-28T18:24:03.372Z,9.35
2022-10-28T18:26:32.591Z,8.40
2022-10-28T18:29:03.790Z,8.90
2022-10-28T18:31:34.895Z,8.95
2022-10-28T18:34:03.343Z,8.55
2022-10-28T18:36:34.841Z,8.82
2022-10-28T18:39:05.461Z,8.35
2022-10-28T18:41:34.714Z,7.82
2022-10-28T18:44:04.442Z,9.00
2022-10-28T18:46:35.301Z,8.40
2022-10-28T18:49:02.955Z,9.67
2022-10-28T18:51:30.438Z,9.27
2022-10-28T18:53:58.027Z,9.03
2022-10-28T18:56:29.164Z,9.23
2022-10-28T18:58:58.106Z,9.02
2022-10-28T19:01:28.190Z,10.00
2022-10-28T19:04:00.961Z,9.90
2022-10-28T19:06:32.637Z,9.10
2022-10-28T19:09:02.688Z,9.05
2022-10-28T19:11:31.617Z,9.55
2022-10-28T19:14:00.657Z,9.23
2022-10-28T19:16:29.841Z,9.20
2022-10-28T19:18:58.701Z,8.88
2022-10-28T19:21:27.465Z,9.43
2022-10-28T19:23:55.547Z,8.88
2022-10-28T19:26:23.604Z,8.85
2022-10-28T19:28:52.058Z,9.18
2022-10-28T19:31:22.370Z,9.68
2022-10-28T19:33:51.359Z,9.07
2022-10-28T19:36:23.779Z,9.43
2022-10-28T19:38:55.343Z,8.75
2022-10-28T19:41:25.108Z,8.68
2022-10-28T19:43:58.560Z,9.05
2022-10-28T19:46:28.299Z,8.82
2022-10-28T19:48:58.892Z,8.88
2022-10-28T19:51:28.938Z,8.88
2022-10-28T19:53:59.200Z,9.23
2022-10-28T19:56:27.903Z,8.80
2022-10-28T19:58:57.855Z,9.70
2022-10-28T20:01:27.303Z,9.00
2022-10-28T20:03:55.959Z,9.52
2022-10-28T20:06:30.368Z,8.98
2022-10-28T20:08:57.820Z,8.57
2022-10-28T20:11:27.591Z,9.23
2022-10-28T20:14:03.255Z,8.85
2022-10-28T20:16:32.254Z,9.23
2022-10-28T20:18:59.799Z,9.43
2022-10-28T20:21:29.315Z,9.27
2022-10-28T20:23:57.794Z,9.37
2022-10-28T20:26:28.106Z,9.85
2022-10-28T20:28:56.085Z,9.75
2022-10-28T20:31:26.299Z,10.10
2022-10-28T20:33:59.670Z,10.05
2022-10-28T20:36:30.153Z,10.40
2022-10-28T20:39:16.035Z,10.40
2022-10-28T20:41:45.594Z,10.45
2022-10-28T20:44:13.020Z,10.32
2022-10-28T20:46:40.713Z,10.60
2022-10-28T20:49:13.104Z,10.32
2022-10-28T20:51:41.175Z,10.95
2022-10-28T20:54:08.656Z,10.73
2022-10-28T20:56:38.244Z,11.38
2022-10-28T20:59:05.948Z,10.77
2022-10-28T21:01:36.267Z,10.23
2022-10-28T21:04:06.577Z,10.32
2022-10-28T21:06:34.767Z,10.30
2022-10-28T21:09:02.213Z,11.10
2022-10-28T21:11:29.543Z,10.38
2022-10-28T21:13:59.376Z,10.82
2022-10-28T21:16:28.173Z,10.48
2022-10-28T21:18:56.405Z,10.98
2022-10-28T21:21:24.802Z,10.98
2022-10-28T21:23:52.545Z,10.82
2022-10-28T21:26:20.099Z,10.52
2022-10-28T21:28:52.139Z,10.07
2022-10-28T21:31:21.271Z,9.82
2022-10-28T21:36:21.451Z,9.43
2022-10-28T21:38:52.288Z,9.68
2022-10-28T21:41:20.904Z,9.50
2022-10-28T21:43:52.753Z,9.50
2022-10-28T21:46:21.525Z,9.48
2022-10-28T21:48:49.012Z,9.35
2022-10-28T21:51:17.327Z,9.38
2022-10-28T21:53:45.523Z,8.63
2022-10-28T21:56:19.245Z,8.80
2022-10-28T21:58:48.797Z,8.95
2022-10-28T22:01:24.120Z,9.35
2022-10-28T22:03:54.603Z,8.33
2022-10-28T22:06:22.413Z,8.60
2022-10-28T22:08:52.133Z,8.68
2022-10-28T22:11:21.616Z,8.63
2022-10-28T22:13:59.204Z,9.00
2022-10-28T22:16:28.145Z,9.20
2022-10-28T22:18:57.191Z,9.23
2022-10-28T22:21:30.184Z,8.90
2022-10-28T22:23:57.788Z,9.00
2022-10-28T22:26:28.483Z,9.27
2022-10-28T22:28:56.444Z,8.77
2022-10-28T22:31:26.922Z,8.85
2022-10-28T22:33:54.671Z,9.32
2022-10-28T22:36:23.511Z,8.98
2022-10-28T22:38:51.662Z,8.68
2022-10-28T22:41:24.399Z,8.88
2022-10-28T22:43:54.243Z,8.55
2022-10-28T22:46:23.297Z,8.43
2022-10-28T22:48:50.605Z,8.32
2022-10-28T22:51:18.977Z,8.37
2022-10-28T22:53:46.728Z,8.43
2022-10-28T22:56:20.361Z,8.67
2022-10-28T22:58:51.988Z,8.07
2022-10-28T23:01:20.375Z,7.97
2022-10-28T23:03:49.941Z,8.00
2022-10-28T23:06:19.826Z,7.97
2022-10-28T23:08:47.536Z,8.25
2022-10-28T23:11:16.876Z,7.53
2022-10-28T23:13:45.151Z,8.00
2022-10-28T23:16:15.013Z,7.65
2022-10-28T23:18:43.116Z,7.90
2022-10-28T23:21:32.713Z,6.83
2022-10-28T23:24:00.983Z,7.03
2022-10-28T23:26:29.443Z,7.10
2022-10-28T23:28:58.735Z,6.93
2022-10-28T23:31:27.405Z,6.68
2022-10-28T23:33:55.523Z,6.65
2022-10-28T23:36:23.306Z,6.47
2022-10-28T23:38:50.906Z,6.50
2022-10-28T23:41:19.387Z,6.82
2022-10-28T23:43:47.405Z,6.88
2022-10-28T23:46:14.869Z,6.43
2022-10-28T23:48:42.247Z,5.67
2022-10-28T23:51:09.627Z,6.60
2022-10-28T23:53:37.217Z,6.50
2022-10-28T23:56:05.132Z,6.35
2022-10-28T23:58:32.461Z,6.57
